createdAt,value
2018-07-26T00:00:00.840Z,100.00
2018-07-26T00:02:28.165Z,100.00
2018-07-26T00:04:55.164Z,100.00
2018-07-26T00:07:22.233Z,100.00
2018-07-26T00:09:49.524Z,100.00
2018-07-26T00:12:16.522Z,100.00
2018-07-26T00:14:45.642Z,100.00
2018-07-26T00:17:12.762Z,100.00
2018-07-26T00:19:40.035Z,100.00
2018-07-26T00:22:07.712Z,100.00
2018-07-26T00:24:34.841Z,100.00
2018-07-26T00:27:01.968Z,100.00
2018-07-26T00:29:29.211Z,100.00
2018-07-26T00:31:56.367Z,100.00
2018-07-26T00:34:23.582Z,100.00
2018-07-26T00:36:50.736Z,100.00
2018-07-26T00:39:17.932Z,100.00
2018-07-26T00:41:45.147Z,100.00
2018-07-26T00:44:12.285Z,100.00
2018-07-26T00:46:39.587Z,100.00
2018-07-26T00:49:06.572Z,100.00
2018-07-26T00:51:33.719Z,100.00
2018-07-26T00:54:00.779Z,100.00
2018-07-26T00:56:27.871Z,100.00
2018-07-26T00:58:54.846Z,100.00
2018-07-26T01:01:22.523Z,100.00
2018-07-26T01:03:49.534Z,100.00
2018-07-26T01:06:16.512Z,100.00
2018-07-26T01:08:43.530Z,100.00
2018-07-26T01:11:10.650Z,100.00
2018-07-26T01:13:37.640Z,100.00
2018-07-26T01:16:04.836Z,100.00
2018-07-26T01:18:31.838Z,100.00
2018-07-26T01:20:59.028Z,100.00
2018-07-26T01:23:26.052Z,100.00
2018-07-26T01:25:53.142Z,100.00
2018-07-26T01:28:20.458Z,100.00
2018-07-26T01:30:47.499Z,100.00
2018-07-26T01:33:14.777Z,100.00
2018-07-26T01:35:41.906Z,100.00
2018-07-26T01:38:12.286Z,100.00
2018-07-26T01:40:44.092Z,100.00
2018-07-26T01:43:23.752Z,100.00
2018-07-26T01:45:50.751Z,100.00
2018-07-26T01:48:17.736Z,100.00
2018-07-26T01:50:44.743Z,100.00
2018-07-26T01:53:11.755Z,100.00
2018-07-26T01:55:38.831Z,100.00
2018-07-26T01:58:05.835Z,100.00
2018-07-26T02:00:32.838Z,100.00
2018-07-26T02:03:00.244Z,100.00
2018-07-26T02:05:27.217Z,100.00
2018-07-26T02:07:54.198Z,100.00
2018-07-26T02:10:21.182Z,100.00
2018-07-26T02:12:48.192Z,100.00
2018-07-26T02:15:15.295Z,100.00
2018-07-26T02:17:42.312Z,100.00
2018-07-26T02:20:09.458Z,100.00
2018-07-26T02:22:36.559Z,100.00
2018-07-26T02:25:03.964Z,100.00
2018-07-26T02:27:30.967Z,100.00
2018-07-26T02:29:58.050Z,100.00
2018-07-26T02:32:25.238Z,100.00
2018-07-26T02:34:52.306Z,100.00
2018-07-26T02:37:19.295Z,100.00
2018-07-26T02:39:46.292Z,100.00
2018-07-26T02:42:13.347Z,100.00
2018-07-26T02:44:40.339Z,100.00
2018-07-26T02:47:07.335Z,100.00
2018-07-26T02:49:34.319Z,100.00
2018-07-26T02:52:01.287Z,100.00
2018-07-26T02:54:28.749Z,100.00
2018-07-26T02:56:55.720Z,100.00
2018-07-26T02:59:22.696Z,100.00
2018-07-26T03:01:49.695Z,100.00
2018-07-26T03:04:16.697Z,100.00
2018-07-26T03:06:43.691Z,100.00
2018-07-26T03:09:10.681Z,100.00
2018-07-26T03:11:37.711Z,100.00
2018-07-26T03:14:04.961Z,100.00
2018-07-26T03:16:31.956Z,100.00
2018-07-26T03:18:59.036Z,100.00
2018-07-26T03:21:26.048Z,100.00
2018-07-26T03:23:53.287Z,100.00
2018-07-26T03:26:20.297Z,100.00
2018-07-26T03:28:47.339Z,100.00
2018-07-26T03:31:14.316Z,100.00
2018-07-26T03:33:41.312Z,100.00
2018-07-26T03:36:08.772Z,100.00
2018-07-26T03:38:35.771Z,100.00
2018-07-26T03:41:02.814Z,100.00
2018-07-26T03:43:29.822Z,100.00
2018-07-26T03:45:57.088Z,100.00
2018-07-26T03:48:24.219Z,100.00
2018-07-26T03:50:51.327Z,100.00
2018-07-26T03:53:18.357Z,100.00
2018-07-26T03:55:45.465Z,100.00
2018-07-26T03:58:12.532Z,100.00
2018-07-26T04:00:39.531Z,100.00
2018-07-26T04:03:06.657Z,100.00
2018-07-26T04:05:34.282Z,100.00
2018-07-26T04:08:01.228Z,100.00
2018-07-26T04:10:28.300Z,100.00
2018-07-26T04:12:55.383Z,100.00
2018-07-26T04:15:22.463Z,100.00
2018-07-26T04:17:53.511Z,100.00
2018-07-26T04:20:20.504Z,100.00
2018-07-26T04:22:47.591Z,100.00
2018-07-26T04:25:14.591Z,100.00
2018-07-26T04:27:41.740Z,100.00
2018-07-26T04:30:08.895Z,100.00
2018-07-26T04:32:35.855Z,100.00
2018-07-26T04:35:02.927Z,100.00
2018-07-26T04:37:29.911Z,100.00
2018-07-26T04:39:56.983Z,100.00
2018-07-26T04:42:23.965Z,100.00
2018-07-26T04:44:51.151Z,100.00
2018-07-26T04:47:18.131Z,100.00
2018-07-26T04:49:45.205Z,100.00
2018-07-26T04:52:12.236Z,100.00
2018-07-26T04:54:39.319Z,100.00
2018-07-26T04:57:06.296Z,100.00
2018-07-26T04:59:33.672Z,100.00
2018-07-26T05:02:00.756Z,100.00
2018-07-26T05:04:27.799Z,100.00
2018-07-26T05:06:54.795Z,100.00
2018-07-26T05:09:21.841Z,100.00
2018-07-26T05:11:48.838Z,100.00
2018-07-26T05:14:15.808Z,100.00
2018-07-26T05:16:42.872Z,100.00
2018-07-26T05:19:09.948Z,99.75
2018-07-26T05:21:36.939Z,99.91
2018-07-26T05:24:04.153Z,99.67
2018-07-26T05:26:31.295Z,98.89
2018-07-26T05:28:58.272Z,98.70
2018-07-26T05:31:25.409Z,97.90
2018-07-26T05:33:52.382Z,98.18
2018-07-26T05:36:19.460Z,98.57
2018-07-26T05:38:46.509Z,98.10
2018-07-26T05:41:13.543Z,98.39
2018-07-26T05:43:40.576Z,96.47
2018-07-26T05:46:07.591Z,96.65
2018-07-26T05:48:34.656Z,95.37
2018-07-26T05:51:01.817Z,94.14
2018-07-26T05:53:28.802Z,94.28
2018-07-26T05:55:55.820Z,94.81
2018-07-26T05:58:22.905Z,93.94
2018-07-26T06:00:49.908Z,94.01
2018-07-26T06:03:16.979Z,92.36
2018-07-26T06:05:43.988Z,92.32
2018-07-26T06:08:11.195Z,89.93
2018-07-26T06:10:38.201Z,90.16
2018-07-26T06:13:05.596Z,90.54
2018-07-26T06:15:32.672Z,90.20
2018-07-26T06:17:59.676Z,90.82
2018-07-26T06:20:26.828Z,87.29
2018-07-26T06:22:53.915Z,86.19
2018-07-26T06:25:20.896Z,87.71
2018-07-26T06:27:47.884Z,88.61
2018-07-26T06:30:14.884Z,88.12
2018-07-26T06:32:41.948Z,87.65
2018-07-26T06:35:09.616Z,84.52
2018-07-26T06:37:36.635Z,86.28
2018-07-26T06:40:04.368Z,85.90
2018-07-26T06:42:31.392Z,86.85
2018-07-26T06:44:58.387Z,85.90
2018-07-26T06:47:25.467Z,84.50
2018-07-26T06:49:52.538Z,83.63
2018-07-26T06:52:19.613Z,81.21
2018-07-26T06:54:46.619Z,81.88
2018-07-26T06:57:13.780Z,79.92
2018-07-26T06:59:40.857Z,79.30
2018-07-26T07:02:08.050Z,79.19
2018-07-26T07:04:35.435Z,80.34
2018-07-26T07:07:02.568Z,81.43
2018-07-26T07:09:29.578Z,81.72
2018-07-26T07:11:56.596Z,78.94
2018-07-26T07:14:23.748Z,72.67
2018-07-26T07:16:50.806Z,73.99
2018-07-26T07:19:17.936Z,76.53
2018-07-26T07:21:44.963Z,76.11
2018-07-26T07:24:16.649Z,75.91
2018-07-26T07:26:43.725Z,74.39
2018-07-26T07:29:10.921Z,75.11
2018-07-26T07:31:38.304Z,74.58
2018-07-26T07:34:05.759Z,70.87
2018-07-26T07:39:11.414Z,70.70
2018-07-26T07:41:39.422Z,69.85
2018-07-26T07:44:07.816Z,68.94
2018-07-26T07:46:36.415Z,69.02
2018-07-26T07:49:05.470Z,65.55
2018-07-26T07:51:34.151Z,66.96
2018-07-26T07:54:01.979Z,66.03
2018-07-26T07:56:29.777Z,65.18
2018-07-26T07:58:57.614Z,66.19
2018-07-26T08:01:25.464Z,67.99
2018-07-26T08:03:53.298Z,67.73
2018-07-26T08:06:21.348Z,68.83
2018-07-26T08:08:49.658Z,66.65
2018-07-26T08:11:16.745Z,67.26
2018-07-26T08:13:44.105Z,65.49
2018-07-26T08:16:11.335Z,65.97
2018-07-26T08:18:38.412Z,64.46
2018-07-26T08:21:05.588Z,63.34
2018-07-26T08:23:32.741Z,65.31
2018-07-26T08:25:59.774Z,62.66
2018-07-26T08:28:26.800Z,61.61
2018-07-26T08:30:54.932Z,60.59
2018-07-26T08:33:22.384Z,62.38
2018-07-26T08:35:49.459Z,64.05
2018-07-26T08:38:16.477Z,60.88
2018-07-26T08:40:43.497Z,62.16
2018-07-26T08:43:10.514Z,61.12
2018-07-26T08:45:37.641Z,57.69
2018-07-26T08:48:04.877Z,56.73
2018-07-26T08:50:32.085Z,57.81
2018-07-26T08:52:59.200Z,56.08
2018-07-26T08:55:26.212Z,58.80
2018-07-26T08:57:53.492Z,59.41
2018-07-26T09:00:20.881Z,55.69
2018-07-26T09:02:48.481Z,54.39
2018-07-26T09:05:15.792Z,54.84
2018-07-26T09:07:43.327Z,54.70
2018-07-26T09:10:10.348Z,51.76
2018-07-26T09:12:37.628Z,55.01
2018-07-26T09:15:04.978Z,51.16
2018-07-26T09:17:31.976Z,50.26
2018-07-26T09:19:58.967Z,48.85
2018-07-26T09:22:25.978Z,49.59
2018-07-26T09:24:53.061Z,50.58
2018-07-26T09:27:20.339Z,50.90
2018-07-26T09:29:47.419Z,50.20
2018-07-26T09:32:14.635Z,50.77
2018-07-26T09:34:48.597Z,48.44
2018-07-26T09:37:15.779Z,47.97
2018-07-26T09:39:42.955Z,49.93
2018-07-26T09:42:09.973Z,48.62
2018-07-26T09:44:37.038Z,48.65
2018-07-26T09:47:04.103Z,49.30
2018-07-26T09:49:31.111Z,47.39
2018-07-26T09:51:59.491Z,49.48
2018-07-26T09:54:26.486Z,46.25
2018-07-26T09:56:53.572Z,48.77
2018-07-26T09:59:20.649Z,53.53
2018-07-26T10:01:48.507Z,49.63
2018-07-26T10:04:15.525Z,48.55
2018-07-26T10:06:42.584Z,52.02
2018-07-26T10:09:10.892Z,45.96
2018-07-26T10:11:37.897Z,47.78
2018-07-26T10:14:04.961Z,46.38
2018-07-26T10:16:32.055Z,49.96
2018-07-26T10:18:59.046Z,44.58
2018-07-26T10:21:26.060Z,45.93
2018-07-26T10:23:53.069Z,47.19
2018-07-26T10:26:20.106Z,47.23
2018-07-26T10:28:47.120Z,45.77
2018-07-26T10:31:14.167Z,45.14
2018-07-26T10:33:41.160Z,47.01
2018-07-26T10:36:08.256Z,44.53
2018-07-26T10:38:35.268Z,47.32
2018-07-26T10:41:02.331Z,43.21
2018-07-26T10:43:29.484Z,41.88
2018-07-26T10:45:56.562Z,41.05
2018-07-26T10:48:23.600Z,41.69
2018-07-26T10:50:50.723Z,42.36
2018-07-26T10:53:17.844Z,41.65
2018-07-26T10:55:44.890Z,43.72
2018-07-26T10:58:11.891Z,39.84
2018-07-26T11:00:38.929Z,41.17
2018-07-26T11:03:06.043Z,44.42
2018-07-26T11:05:33.339Z,45.04
2018-07-26T11:08:00.346Z,43.80
2018-07-26T11:10:27.432Z,43.63
2018-07-26T11:12:54.628Z,42.42
2018-07-26T11:15:29.249Z,40.22
2018-07-26T11:17:56.283Z,45.67
2018-07-26T11:20:23.383Z,39.37
2018-07-26T11:22:50.483Z,38.74
2018-07-26T11:25:17.507Z,41.10
2018-07-26T11:27:44.596Z,38.61
2018-07-26T11:30:11.677Z,41.43
2018-07-26T11:32:38.998Z,42.06
2018-07-26T11:35:06.016Z,39.75
2018-07-26T11:37:33.043Z,38.65
2018-07-26T11:40:00.087Z,39.60
2018-07-26T11:42:27.098Z,41.24
2018-07-26T11:44:54.364Z,41.47
2018-07-26T11:47:21.376Z,38.49
2018-07-26T11:49:48.476Z,38.16
2018-07-26T11:52:15.494Z,42.25
2018-07-26T11:54:42.497Z,40.75
2018-07-26T11:57:09.507Z,39.59
2018-07-26T11:59:36.666Z,38.05
2018-07-26T12:02:03.744Z,39.16
2018-07-26T12:04:30.987Z,39.47
2018-07-26T12:06:58.051Z,39.11
2018-07-26T12:09:25.139Z,38.31
2018-07-26T12:11:52.133Z,39.28
2018-07-26T12:14:19.132Z,37.63
2018-07-26T12:16:46.236Z,39.81
2018-07-26T12:19:13.244Z,40.71
2018-07-26T12:21:40.352Z,38.07
2018-07-26T12:24:07.375Z,36.68
2018-07-26T12:26:34.363Z,36.64
2018-07-26T12:29:01.443Z,36.72
2018-07-26T12:31:28.480Z,36.80
2018-07-26T12:33:55.474Z,35.39
2018-07-26T12:36:22.480Z,37.25
2018-07-26T12:38:49.687Z,33.94
2018-07-26T12:41:16.716Z,36.63
2018-07-26T12:43:43.793Z,35.57
2018-07-26T12:46:10.861Z,33.76
2018-07-26T12:48:38.268Z,35.80
2018-07-26T12:51:05.370Z,35.88
2018-07-26T12:53:32.460Z,34.27
2018-07-26T12:55:59.537Z,34.85
2018-07-26T12:58:26.570Z,31.91
2018-07-26T13:00:53.796Z,31.03
2018-07-26T13:03:20.964Z,31.41
2018-07-26T13:05:47.979Z,29.37
2018-07-26T13:08:14.988Z,30.14
2018-07-26T13:10:41.999Z,28.77
2018-07-26T13:13:09.243Z,29.95
2018-07-26T13:15:36.230Z,29.81
2018-07-26T13:18:03.239Z,32.63
2018-07-26T13:20:30.233Z,29.90
2018-07-26T13:22:57.259Z,27.31
2018-07-26T13:25:24.251Z,27.30
2018-07-26T13:27:51.340Z,29.07
2018-07-26T13:30:18.416Z,28.94
2018-07-26T13:32:45.507Z,31.40
2018-07-26T13:35:12.885Z,29.65
2018-07-26T13:37:39.958Z,30.26
2018-07-26T13:40:07.229Z,30.78
2018-07-26T13:42:34.417Z,30.84
2018-07-26T13:45:01.607Z,28.70
2018-07-26T13:47:28.620Z,27.79
2018-07-26T13:49:55.622Z,27.72
2018-07-26T13:52:22.704Z,28.57
2018-07-26T13:54:49.677Z,27.33
2018-07-26T13:57:16.703Z,26.82
2018-07-26T13:59:43.800Z,27.13
2018-07-26T14:02:11.617Z,27.57
2018-07-26T14:04:38.659Z,26.89
2018-07-26T14:07:05.667Z,26.01
2018-07-26T14:09:32.660Z,25.79
2018-07-26T14:11:59.832Z,28.19
2018-07-26T14:14:26.826Z,32.29
2018-07-26T14:16:53.833Z,33.73
2018-07-26T14:19:20.903Z,34.35
2018-07-26T14:21:48.000Z,35.63
2018-07-26T14:24:20.915Z,35.61
2018-07-26T14:26:47.964Z,35.59
2018-07-26T14:29:15.116Z,36.35
2018-07-26T14:31:42.323Z,36.35
2018-07-26T14:34:09.586Z,35.35
2018-07-26T14:36:36.575Z,35.08
2018-07-26T14:39:06.444Z,34.80
2018-07-26T14:41:33.579Z,33.37
2018-07-26T14:44:00.575Z,34.18
2018-07-26T14:46:27.640Z,34.62
2018-07-26T14:48:54.642Z,34.24
2018-07-26T14:51:21.668Z,33.92
2018-07-26T14:53:48.676Z,34.53
2018-07-26T14:56:15.692Z,35.59
2018-07-26T14:58:42.704Z,36.37
2018-07-26T15:01:09.726Z,37.10
2018-07-26T15:03:36.744Z,36.55
2018-07-26T15:06:03.777Z,37.08
2018-07-26T15:08:30.756Z,37.21
2018-07-26T15:10:57.916Z,36.45
2018-07-26T15:13:25.088Z,37.86
2018-07-26T15:15:52.173Z,38.65
2018-07-26T15:18:19.224Z,38.23
2018-07-26T15:20:46.320Z,39.00
2018-07-26T15:23:13.337Z,39.12
2018-07-26T15:25:40.359Z,38.68
2018-07-26T15:28:07.565Z,39.43
2018-07-26T15:30:34.606Z,40.06
2018-07-26T15:33:01.627Z,39.62
2018-07-26T15:35:28.719Z,38.44
2018-07-26T15:37:55.759Z,39.95
2018-07-26T15:40:22.865Z,40.96
2018-07-26T15:42:49.892Z,41.28
2018-07-26T15:45:16.943Z,40.97
2018-07-26T15:47:43.963Z,40.55
2018-07-26T15:50:11.080Z,40.82
2018-07-26T15:52:38.119Z,41.32
2018-07-26T15:55:05.260Z,42.11
2018-07-26T15:57:32.313Z,41.19
2018-07-26T16:00:00.189Z,39.74
2018-07-26T16:02:27.345Z,40.39
2018-07-26T16:04:54.439Z,41.62
2018-07-26T16:07:21.503Z,41.63
2018-07-26T16:09:48.573Z,39.64
2018-07-26T16:12:15.804Z,41.00
2018-07-26T16:14:42.848Z,41.01
2018-07-26T16:17:09.905Z,42.05
2018-07-26T16:19:37.144Z,42.00
2018-07-26T16:22:04.265Z,41.72
2018-07-26T16:24:32.056Z,42.15
2018-07-26T16:26:59.145Z,41.53
2018-07-26T16:29:26.230Z,42.65
2018-07-26T16:31:53.458Z,43.64
2018-07-26T16:34:20.512Z,42.50
2018-07-26T16:36:47.639Z,43.56
2018-07-26T16:39:14.768Z,42.16
2018-07-26T16:41:41.852Z,43.32
2018-07-26T16:44:08.924Z,43.24
2018-07-26T16:46:36.564Z,42.48
2018-07-26T16:49:04.160Z,42.29
2018-07-26T16:51:31.224Z,43.00
2018-07-26T16:53:58.279Z,43.85
2018-07-26T16:56:25.325Z,42.78
2018-07-26T16:58:52.757Z,42.84
2018-07-26T17:01:19.710Z,43.50
2018-07-26T17:03:46.898Z,43.17
2018-07-26T17:06:13.940Z,43.59
2018-07-26T17:08:41.346Z,44.16
2018-07-26T17:11:08.441Z,44.08
2018-07-26T17:13:35.490Z,43.38
2018-07-26T17:16:02.545Z,44.55
2018-07-26T17:18:29.820Z,44.90
2018-07-26T17:20:56.880Z,43.79
2018-07-26T17:23:23.963Z,43.60
2018-07-26T17:25:50.995Z,44.62
2018-07-26T17:28:18.035Z,44.49
2018-07-26T17:30:45.060Z,44.83
2018-07-26T17:33:12.087Z,44.60
2018-07-26T17:35:39.220Z,44.71
2018-07-26T17:38:06.273Z,44.79
2018-07-26T17:40:33.312Z,45.83
2018-07-26T17:43:00.508Z,45.57
2018-07-26T17:45:27.583Z,47.23
2018-07-26T17:47:54.580Z,45.80
2018-07-26T17:50:21.639Z,44.94
2018-07-26T17:52:48.637Z,45.98
2018-07-26T17:55:15.696Z,46.40
2018-07-26T17:57:42.804Z,45.14
2018-07-26T18:00:11.571Z,46.01
2018-07-26T18:02:38.629Z,45.47
2018-07-26T18:05:06.107Z,46.50
2018-07-26T18:07:33.308Z,46.61
2018-07-26T18:10:00.306Z,46.34
2018-07-26T18:12:27.310Z,47.19
2018-07-26T18:14:54.701Z,48.42
2018-07-26T18:17:21.704Z,47.93
2018-07-26T18:19:48.835Z,47.95
2018-07-26T18:22:15.880Z,48.19
2018-07-26T18:24:42.945Z,48.90
2018-07-26T18:27:10.223Z,48.84
2018-07-26T18:29:37.346Z,47.81
2018-07-26T18:32:04.628Z,48.08
2018-07-26T18:34:31.627Z,48.82
2018-07-26T18:36:58.620Z,49.37
2018-07-26T18:39:25.616Z,49.47
2018-07-26T18:41:52.596Z,48.84
2018-07-26T18:44:19.688Z,49.40
2018-07-26T18:46:46.691Z,49.88
2018-07-26T18:49:13.740Z,50.45
2018-07-26T18:51:40.794Z,50.53
2018-07-26T18:54:07.949Z,49.38
2018-07-26T18:56:34.945Z,50.30
2018-07-26T18:59:02.027Z,50.30
2018-07-26T19:01:29.136Z,52.01
2018-07-26T19:03:56.202Z,51.62
2018-07-26T19:06:23.389Z,52.06
2018-07-26T19:08:50.856Z,52.67
2018-07-26T19:11:17.871Z,52.23
2018-07-26T19:13:44.878Z,52.19
2018-07-26T19:16:11.913Z,51.95
2018-07-26T19:18:38.919Z,52.43
2018-07-26T19:21:06.259Z,53.45
2018-07-26T19:23:33.256Z,52.70
2018-07-26T19:26:00.455Z,54.13
2018-07-26T19:28:27.821Z,54.62
2018-07-26T19:30:55.267Z,54.93
2018-07-26T19:33:22.317Z,54.36
2018-07-26T19:35:51.121Z,54.22
2018-07-26T19:38:18.282Z,54.72
2018-07-26T19:40:45.275Z,55.06
2018-07-26T19:43:12.423Z,54.33
2018-07-26T19:45:39.432Z,55.24
2018-07-26T19:48:07.429Z,55.05
2018-07-26T19:50:34.444Z,56.23
2018-07-26T19:53:01.559Z,56.10
2018-07-26T19:55:28.882Z,56.06
2018-07-26T19:57:56.013Z,56.51
2018-07-26T20:00:23.140Z,57.19
2018-07-26T20:02:50.131Z,57.13
2018-07-26T20:05:17.519Z,57.05
2018-07-26T20:07:44.511Z,56.83
2018-07-26T20:10:12.460Z,58.06
2018-07-26T20:12:39.783Z,56.98
2018-07-26T20:15:07.063Z,58.39
2018-07-26T20:17:34.285Z,59.15
2018-07-26T20:20:01.360Z,58.63
2018-07-26T20:22:28.539Z,59.00
2018-07-26T20:24:56.203Z,58.79
2018-07-26T20:27:23.232Z,58.12
2018-07-26T20:29:50.263Z,59.29
2018-07-26T20:32:17.271Z,59.85
2018-07-26T20:34:44.731Z,59.56
2018-07-26T20:37:11.840Z,59.49
2018-07-26T20:39:38.942Z,59.61
2018-07-26T20:42:06.041Z,59.72
2018-07-26T20:44:33.271Z,60.92
2018-07-26T20:47:00.483Z,60.81
2018-07-26T20:49:27.492Z,60.67
2018-07-26T20:51:55.212Z,60.01
2018-07-26T20:54:22.463Z,61.20
2018-07-26T20:56:49.456Z,60.79
2018-07-26T20:59:16.558Z,61.64
2018-07-26T21:01:43.539Z,61.84
2018-07-26T21:04:10.516Z,62.18
2018-07-26T21:06:37.540Z,62.94
2018-07-26T21:09:07.856Z,61.92
2018-07-26T21:11:35.008Z,61.57
2018-07-26T21:14:02.002Z,61.95
2018-07-26T21:16:29.105Z,62.93
2018-07-26T21:18:56.097Z,62.31
2018-07-26T21:21:23.113Z,63.16
2018-07-26T21:23:50.092Z,62.43
2018-07-26T21:26:17.167Z,63.75
2018-07-26T21:28:44.164Z,64.21
2018-07-26T21:31:11.155Z,64.23
2018-07-26T21:33:38.180Z,63.88
2018-07-26T21:36:05.187Z,63.83
2018-07-26T21:38:32.186Z,64.10
2018-07-26T21:40:59.174Z,64.28
2018-07-26T21:43:26.363Z,63.45
2018-07-26T21:45:53.366Z,65.46
2018-07-26T21:48:20.687Z,65.47
2018-07-26T21:50:48.503Z,65.16
2018-07-26T21:53:15.707Z,65.42
2018-07-26T21:55:42.827Z,66.00
2018-07-26T21:58:09.862Z,65.87
2018-07-26T22:00:42.096Z,66.79
2018-07-26T22:03:09.739Z,67.11
2018-07-26T22:05:36.824Z,67.53
2018-07-26T22:08:03.982Z,66.80
2018-07-26T22:10:31.568Z,67.46
2018-07-26T22:12:58.728Z,67.80
2018-07-26T22:15:25.713Z,67.41
2018-07-26T22:17:52.731Z,67.76
2018-07-26T22:20:20.087Z,68.09
2018-07-26T22:22:47.167Z,68.44
2018-07-26T22:25:14.494Z,67.57
2018-07-26T22:27:41.555Z,68.47
2018-07-26T22:30:08.743Z,68.43
2018-07-26T22:32:35.739Z,68.23
2018-07-26T22:35:02.968Z,68.88
2018-07-26T22:37:29.973Z,68.86
2018-07-26T22:39:56.951Z,69.89
2018-07-26T22:42:23.957Z,69.42
2018-07-26T22:44:50.968Z,70.22
2018-07-26T22:47:18.055Z,69.69
2018-07-26T22:49:45.064Z,69.14
2018-07-26T22:52:12.167Z,71.37
2018-07-26T22:54:39.160Z,71.82
2018-07-26T22:57:06.193Z,72.16
2018-07-26T22:59:33.188Z,72.41
2018-07-26T23:02:00.284Z,72.05
2018-07-26T23:04:27.884Z,72.60
2018-07-26T23:06:54.896Z,72.72
2018-07-26T23:09:22.533Z,71.87
2018-07-26T23:11:49.620Z,73.27
2018-07-26T23:14:17.039Z,75.01
2018-07-26T23:16:44.138Z,73.43
2018-07-26T23:19:11.133Z,72.81
2018-07-26T23:21:39.080Z,72.66
2018-07-26T23:24:06.083Z,74.24
2018-07-26T23:26:33.170Z,74.41
2018-07-26T23:29:00.526Z,74.51
2018-07-26T23:31:27.655Z,74.03
2018-07-26T23:33:54.932Z,74.96
2018-07-26T23:36:22.103Z,73.52
2018-07-26T23:38:49.284Z,74.15
2018-07-26T23:41:16.284Z,74.21
2018-07-26T23:43:43.483Z,73.71
2018-07-26T23:46:10.583Z,73.87
2018-07-26T23:48:37.748Z,74.12
2018-07-26T23:51:04.817Z,74.29
2018-07-26T23:53:32.081Z,75.62
2018-07-26T23:55:59.063Z,74.87
2018-07-26T23:58:26.107Z,75.26
